createdAt,value
2018-09-03T00:01:11.868Z,55.80
2018-09-03T00:03:40.223Z,55.80
2018-09-03T00:06:08.689Z,55.80
2018-09-03T00:08:37.058Z,55.80
2018-09-03T00:11:05.439Z,55.80
2018-09-03T00:13:33.887Z,55.80
2018-09-03T00:16:02.925Z,55.80
2018-09-03T00:18:31.513Z,55.80
2018-09-03T00:20:59.881Z,55.80
2018-09-03T00:23:28.382Z,55.70
2018-09-03T00:25:56.773Z,55.70
2018-09-03T00:28:25.083Z,55.80
2018-09-03T00:30:57.677Z,55.80
2018-09-03T00:33:31.287Z,55.80
2018-09-03T00:36:05.143Z,55.80
2018-09-03T00:38:39.202Z,55.80
2018-09-03T00:41:12.712Z,55.80
2018-09-03T00:43:46.486Z,55.80
2018-09-03T00:46:20.333Z,55.80
2018-09-03T00:48:48.947Z,55.80
2018-09-03T00:51:17.529Z,55.80
2018-09-03T00:53:46.118Z,55.80
2018-09-03T00:56:14.683Z,55.80
2018-09-03T00:58:43.073Z,55.80
2018-09-03T01:01:11.521Z,55.80
2018-09-03T01:03:39.922Z,55.80
2018-09-03T01:06:08.263Z,55.90
2018-09-03T01:08:36.679Z,55.90
2018-09-03T01:11:05.338Z,55.80
2018-09-03T01:13:33.679Z,55.90
2018-09-03T01:16:02.027Z,55.90
2018-09-03T01:18:32.739Z,55.90
2018-09-03T01:21:01.020Z,55.90
2018-09-03T01:23:29.482Z,55.90
2018-09-03T01:25:57.786Z,55.90
2018-09-03T01:28:26.266Z,55.90
2018-09-03T01:30:54.560Z,55.80
2018-09-03T01:33:22.917Z,55.90
2018-09-03T01:35:51.274Z,55.90
2018-09-03T01:38:19.710Z,55.90
2018-09-03T01:40:48.039Z,55.90
2018-09-03T01:43:16.742Z,55.90
2018-09-03T01:45:45.397Z,55.90
2018-09-03T01:48:13.792Z,55.90
2018-09-03T01:50:42.082Z,55.90
2018-09-03T01:53:10.455Z,55.90
2018-09-03T01:55:38.798Z,55.90
2018-09-03T01:58:07.614Z,55.90
2018-09-03T02:00:35.981Z,55.90
2018-09-03T02:03:04.391Z,55.90
2018-09-03T02:05:32.741Z,55.90
2018-09-03T02:08:01.071Z,56.00
2018-09-03T02:10:29.403Z,55.90
2018-09-03T02:12:57.723Z,56.00
2018-09-03T02:15:26.233Z,56.00
2018-09-03T02:17:54.610Z,56.10
2018-09-03T02:20:23.023Z,55.90
2018-09-03T02:22:51.435Z,56.00
2018-09-03T02:25:19.893Z,56.00
2018-09-03T02:27:48.345Z,56.00
2018-09-03T02:30:16.795Z,56.00
2018-09-03T02:32:45.129Z,56.10
2018-09-03T02:35:13.506Z,56.10
2018-09-03T02:37:41.829Z,56.10
2018-09-03T02:40:10.293Z,56.20
2018-09-03T02:42:38.625Z,56.10
2018-09-03T02:45:08.231Z,56.20
2018-09-03T02:47:36.537Z,56.00
2018-09-03T02:50:05.287Z,56.20
2018-09-03T02:52:33.849Z,56.20
2018-09-03T02:55:02.328Z,56.20
2018-09-03T02:57:30.701Z,56.20
2018-09-03T02:59:59.091Z,56.20
2018-09-03T03:02:27.442Z,56.20
2018-09-03T03:04:55.774Z,56.20
2018-09-03T03:07:24.129Z,56.20
2018-09-03T03:09:52.582Z,56.30
2018-09-03T03:12:25.107Z,56.20
2018-09-03T03:14:55.514Z,56.20
2018-09-03T03:17:24.081Z,56.30
2018-09-03T03:19:52.428Z,56.30
2018-09-03T03:22:21.168Z,56.20
2018-09-03T03:24:49.867Z,56.20
2018-09-03T03:27:18.212Z,56.10
2018-09-03T03:29:46.570Z,56.10
2018-09-03T03:32:14.870Z,56.20
2018-09-03T03:34:43.210Z,56.20
2018-09-03T03:37:11.708Z,56.20
2018-09-03T03:39:40.042Z,56.30
2018-09-03T03:42:08.406Z,56.30
2018-09-03T03:44:36.762Z,56.30
2018-09-03T03:47:05.128Z,56.30
2018-09-03T03:49:33.469Z,56.30
2018-09-03T03:52:01.794Z,56.30
2018-09-03T03:54:30.207Z,56.30
2018-09-03T03:56:58.585Z,56.40
2018-09-03T03:59:26.908Z,56.40
2018-09-03T04:01:55.293Z,56.40
2018-09-03T04:04:23.756Z,56.40
2018-09-03T04:06:52.086Z,56.40
2018-09-03T04:09:20.430Z,56.40
2018-09-03T04:11:48.883Z,57.00
2018-09-03T04:14:17.183Z,56.40
2018-09-03T04:16:45.570Z,56.40
2018-09-03T04:19:13.953Z,56.40
2018-09-03T04:21:42.328Z,56.40
2018-09-03T04:24:10.634Z,56.40
2018-09-03T04:26:38.965Z,56.40
2018-09-03T04:29:07.311Z,56.40
2018-09-03T04:31:35.633Z,56.40
2018-09-03T04:34:04.033Z,56.40
2018-09-03T04:36:32.419Z,56.40
2018-09-03T04:39:00.745Z,56.20
2018-09-03T04:41:29.097Z,56.00
2018-09-03T04:43:57.452Z,56.20
2018-09-03T04:46:25.918Z,56.10
2018-09-03T04:48:54.263Z,56.10
2018-09-03T04:51:22.572Z,56.10
2018-09-03T04:53:50.886Z,56.00
2018-09-03T04:56:19.264Z,55.90
2018-09-03T04:58:47.633Z,56.10
2018-09-03T05:01:16.071Z,55.90
2018-09-03T05:03:44.418Z,56.50
2018-09-03T05:06:12.833Z,55.80
2018-09-03T05:08:41.138Z,55.80
2018-09-03T05:11:09.603Z,55.70
2018-09-03T05:13:37.936Z,55.70
2018-09-03T05:16:06.366Z,56.20
2018-09-03T05:18:34.884Z,56.30
2018-09-03T05:21:03.227Z,56.50
2018-09-03T05:23:31.554Z,56.50
2018-09-03T05:26:00.020Z,56.80
2018-09-03T05:28:28.316Z,56.00
2018-09-03T05:30:56.632Z,56.10
2018-09-03T05:33:25.041Z,56.50
2018-09-03T05:35:53.381Z,56.70
2018-09-03T05:38:21.801Z,56.40
2018-09-03T05:40:50.172Z,56.60
2018-09-03T05:43:18.585Z,56.50
2018-09-03T05:45:46.847Z,56.70
2018-09-03T05:48:15.175Z,55.60
2018-09-03T05:50:43.699Z,55.30
2018-09-03T05:53:12.009Z,55.20
2018-09-03T05:55:40.369Z,55.30
2018-09-03T05:58:08.818Z,55.30
2018-09-03T06:00:37.199Z,55.30
2018-09-03T06:03:05.929Z,55.70
2018-09-03T06:05:34.325Z,56.10
2018-09-03T06:08:02.981Z,55.80
2018-09-03T06:10:31.364Z,55.60
2018-09-03T06:12:59.828Z,55.60
2018-09-03T06:15:28.158Z,55.60
2018-09-03T06:17:56.584Z,55.60
2018-09-03T06:20:24.871Z,55.60
2018-09-03T06:22:53.316Z,55.80
2018-09-03T06:25:21.719Z,56.00
2018-09-03T06:27:50.020Z,55.80
2018-09-03T06:30:18.516Z,55.90
2018-09-03T06:32:46.841Z,55.80
2018-09-03T06:35:15.430Z,55.70
2018-09-03T06:37:43.751Z,55.70
2018-09-03T06:40:12.086Z,55.60
2018-09-03T06:42:40.407Z,55.60
2018-09-03T06:45:08.854Z,55.60
2018-09-03T06:47:37.264Z,55.90
2018-09-03T06:50:05.772Z,55.80
2018-09-03T06:52:34.460Z,55.50
2018-09-03T06:55:02.756Z,55.50
2018-09-03T06:57:31.104Z,55.70
2018-09-03T06:59:59.461Z,55.90
2018-09-03T07:02:27.767Z,56.30
2018-09-03T07:04:56.186Z,55.60
2018-09-03T07:07:24.637Z,56.20
2018-09-03T07:09:53.171Z,55.70
2018-09-03T07:12:21.495Z,55.80
2018-09-03T07:14:49.996Z,55.80
2018-09-03T07:17:18.337Z,55.70
2018-09-03T07:19:46.642Z,55.70
2018-09-03T07:22:14.955Z,56.00
2018-09-03T07:24:43.331Z,55.90
2018-09-03T07:27:11.689Z,56.00
2018-09-03T07:29:40.315Z,55.90
2018-09-03T07:32:08.619Z,56.10
2018-09-03T07:34:37.123Z,55.90
2018-09-03T07:37:05.584Z,56.10
2018-09-03T07:39:34.075Z,56.20
2018-09-03T07:42:02.402Z,56.50
2018-09-03T07:44:30.877Z,56.40
2018-09-03T07:46:59.271Z,56.20
2018-09-03T07:49:27.640Z,56.20
2018-09-03T07:51:56.073Z,56.30
2018-09-03T07:54:24.389Z,56.40
2018-09-03T07:56:52.928Z,56.30
2018-09-03T07:59:21.272Z,56.60
2018-09-03T08:01:49.620Z,56.90
2018-09-03T08:04:17.962Z,56.80
2018-09-03T08:06:46.448Z,56.20
2018-09-03T08:09:14.820Z,56.00
2018-09-03T08:11:43.154Z,55.80
2018-09-03T08:14:11.480Z,56.50
2018-09-03T08:16:39.979Z,56.80
2018-09-03T08:19:09.027Z,57.10
2018-09-03T08:21:37.405Z,57.10
2018-09-03T08:24:05.886Z,57.30
2018-09-03T08:26:34.271Z,57.40
2018-09-03T08:29:02.679Z,57.60
2018-09-03T08:31:31.192Z,57.40
2018-09-03T08:33:59.539Z,57.50
2018-09-03T08:36:28.007Z,57.20
2018-09-03T08:38:56.305Z,57.10
2018-09-03T08:41:24.791Z,57.20
2018-09-03T08:43:53.136Z,57.30
2018-09-03T08:46:21.473Z,57.20
2018-09-03T08:48:50.122Z,57.10
2018-09-03T08:51:18.475Z,57.10
2018-09-03T08:53:46.916Z,57.00
2018-09-03T08:56:15.541Z,57.20
2018-09-03T08:58:43.988Z,57.40
2018-09-03T09:01:12.675Z,57.60
2018-09-03T09:03:42.376Z,57.50
2018-09-03T09:06:11.243Z,57.70
2018-09-03T09:08:39.684Z,58.10
2018-09-03T09:11:09.096Z,57.80
2018-09-03T09:13:37.420Z,58.00
2018-09-03T09:16:05.773Z,58.00
2018-09-03T09:18:34.166Z,57.80
2018-09-03T09:21:02.518Z,57.90
2018-09-03T09:23:30.872Z,58.20
2018-09-03T09:25:59.203Z,58.40
2018-09-03T09:28:27.639Z,58.30
2018-09-03T09:30:55.958Z,59.00
2018-09-03T09:33:24.334Z,58.10
2018-09-03T09:35:52.695Z,57.90
2018-09-03T09:38:21.029Z,58.30
2018-09-03T09:40:49.377Z,58.20
2018-09-03T09:43:17.744Z,58.00
2018-09-03T09:45:46.070Z,57.50
2018-09-03T09:48:14.451Z,57.20
2018-09-03T09:50:42.879Z,57.60
2018-09-03T09:53:11.261Z,57.20
2018-09-03T09:55:45.054Z,57.20
2018-09-03T09:58:13.821Z,57.20
2018-09-03T10:00:47.540Z,57.00
2018-09-03T10:03:16.073Z,56.90
2018-09-03T10:05:44.443Z,56.70
2018-09-03T10:08:12.803Z,56.80
2018-09-03T10:10:41.321Z,56.70
2018-09-03T10:13:09.692Z,56.60
2018-09-03T10:15:38.046Z,56.60
2018-09-03T10:18:06.816Z,56.50
2018-09-03T10:20:35.289Z,56.40
2018-09-03T10:23:03.796Z,57.10
2018-09-03T10:25:32.159Z,56.40
2018-09-03T10:28:00.486Z,56.30
2018-09-03T10:30:28.953Z,56.30
2018-09-03T10:32:57.371Z,56.30
2018-09-03T10:35:25.729Z,56.20
2018-09-03T10:37:54.033Z,56.10
2018-09-03T10:40:22.512Z,56.00
2018-09-03T10:42:50.859Z,56.10
2018-09-03T10:45:19.311Z,56.60
2018-09-03T10:47:47.689Z,56.40
2018-09-03T10:50:16.426Z,56.20
2018-09-03T10:52:44.972Z,56.20
2018-09-03T10:55:13.291Z,56.20
2018-09-03T10:57:41.886Z,56.20
2018-09-03T11:00:10.249Z,56.00
2018-09-03T11:02:38.600Z,57.40
2018-09-03T11:05:06.988Z,56.10
2018-09-03T11:07:35.377Z,56.00
2018-09-03T11:10:04.328Z,55.90
2018-09-03T11:12:32.729Z,56.40
2018-09-03T11:15:01.210Z,56.50
2018-09-03T11:17:29.621Z,56.60
2018-09-03T11:20:00.199Z,56.40
2018-09-03T11:22:28.677Z,56.20
2018-09-03T11:24:58.155Z,56.90
2018-09-03T11:27:26.741Z,56.80
2018-09-03T11:29:55.211Z,56.90
2018-09-03T11:32:23.620Z,57.00
2018-09-03T11:34:52.001Z,56.70
2018-09-03T11:37:20.364Z,56.70
2018-09-03T11:39:48.706Z,56.80
2018-09-03T11:42:17.002Z,56.90
2018-09-03T11:44:45.646Z,56.70
2018-09-03T11:47:14.184Z,57.00
2018-09-03T11:49:42.738Z,57.40
2018-09-03T11:52:11.168Z,57.30
2018-09-03T11:54:39.794Z,57.20
2018-09-03T11:57:08.351Z,57.10
2018-09-03T11:59:36.708Z,57.00
2018-09-03T12:02:05.804Z,56.80
2018-09-03T12:04:34.108Z,57.50
2018-09-03T12:07:02.687Z,57.30
2018-09-03T12:09:31.060Z,56.80
2018-09-03T12:11:59.408Z,56.90
2018-09-03T12:14:31.065Z,57.40
2018-09-03T12:16:59.797Z,57.00
2018-09-03T12:19:28.243Z,56.60
2018-09-03T12:21:56.574Z,56.50
2018-09-03T12:24:24.998Z,57.10
2018-09-03T12:26:53.359Z,56.90
2018-09-03T12:29:21.780Z,56.80
2018-09-03T12:31:50.239Z,56.60
2018-09-03T12:34:18.609Z,56.70
2018-09-03T12:36:46.981Z,56.70
2018-09-03T12:39:15.444Z,56.70
2018-09-03T12:41:43.797Z,56.70
2018-09-03T12:44:12.193Z,56.70
2018-09-03T12:46:40.713Z,57.40
2018-09-03T12:49:09.014Z,56.60
2018-09-03T12:51:37.399Z,56.40
2018-09-03T12:54:05.989Z,56.60
2018-09-03T12:56:34.355Z,56.80
2018-09-03T12:59:02.814Z,56.30
2018-09-03T13:01:31.176Z,56.80
2018-09-03T13:03:59.514Z,57.00
2018-09-03T13:06:27.874Z,56.80
2018-09-03T13:08:56.200Z,57.10
2018-09-03T13:11:24.567Z,56.90
2018-09-03T13:13:52.897Z,56.80
2018-09-03T13:16:21.244Z,56.80
2018-09-03T13:18:49.562Z,56.50
2018-09-03T13:21:17.989Z,56.20
2018-09-03T13:23:46.337Z,56.20
2018-09-03T13:26:14.718Z,56.20
2018-09-03T13:28:43.031Z,56.30
2018-09-03T13:31:11.379Z,56.20
2018-09-03T13:33:39.746Z,56.10
2018-09-03T13:36:08.141Z,56.20
2018-09-03T13:38:36.575Z,56.60
2018-09-03T13:41:05.056Z,56.60
2018-09-03T13:43:33.417Z,56.10
2018-09-03T13:46:01.806Z,57.00
2018-09-03T13:48:30.144Z,56.20
2018-09-03T13:50:58.481Z,56.00
2018-09-03T13:53:26.814Z,55.90
2018-09-03T13:55:55.158Z,55.90
2018-09-03T13:58:23.497Z,55.90
2018-09-03T14:00:51.839Z,56.00
2018-09-03T14:03:20.188Z,56.00
2018-09-03T14:05:49.276Z,56.40
2018-09-03T14:08:17.746Z,56.00
2018-09-03T14:10:46.940Z,55.80
2018-09-03T14:13:15.266Z,55.80
2018-09-03T14:15:43.663Z,55.80
2018-09-03T14:18:11.936Z,55.70
2018-09-03T14:20:40.401Z,55.70
2018-09-03T14:23:08.762Z,55.90
2018-09-03T14:25:37.093Z,55.70
2018-09-03T14:28:05.570Z,55.90
2018-09-03T14:30:33.923Z,55.80
2018-09-03T14:33:02.246Z,55.70
2018-09-03T14:35:30.572Z,55.90
2018-09-03T14:37:58.940Z,56.10
2018-09-03T14:40:27.339Z,56.00
2018-09-03T14:42:55.741Z,55.80
2018-09-03T14:45:24.164Z,55.80
2018-09-03T14:47:52.473Z,55.70
2018-09-03T14:50:20.828Z,55.80
2018-09-03T14:52:49.198Z,55.70
2018-09-03T14:55:17.553Z,55.90
2018-09-03T14:57:45.871Z,55.90
2018-09-03T15:00:14.282Z,56.00
2018-09-03T15:02:42.612Z,56.10
2018-09-03T15:05:10.943Z,56.30
2018-09-03T15:07:39.262Z,56.30
2018-09-03T15:10:07.687Z,56.40
2018-09-03T15:12:36.133Z,56.60
2018-09-03T15:15:04.973Z,56.80
2018-09-03T15:17:33.161Z,57.40
2018-09-03T15:20:01.464Z,56.60
2018-09-03T15:22:29.821Z,56.40
2018-09-03T15:24:58.237Z,56.40
2018-09-03T15:27:26.627Z,56.50
2018-09-03T15:29:55.010Z,56.30
2018-09-03T15:32:23.357Z,56.30
2018-09-03T15:34:51.761Z,56.60
2018-09-03T15:37:20.115Z,56.20
2018-09-03T15:39:48.466Z,56.00
2018-09-03T15:42:17.740Z,56.30
2018-09-03T15:44:46.169Z,56.20
2018-09-03T15:47:14.486Z,56.50
2018-09-03T15:49:42.810Z,56.10
2018-09-03T15:52:11.167Z,56.00
2018-09-03T15:54:39.501Z,56.10
2018-09-03T15:57:07.842Z,56.10
2018-09-03T15:59:36.177Z,56.20
2018-09-03T16:02:04.610Z,56.20
2018-09-03T16:04:32.966Z,56.10
2018-09-03T16:07:01.321Z,56.20
2018-09-03T16:09:29.672Z,56.10
2018-09-03T16:11:58.008Z,56.20
2018-09-03T16:14:26.360Z,56.10
2018-09-03T16:16:54.696Z,56.10
2018-09-03T16:19:23.246Z,56.20
2018-09-03T16:21:51.559Z,56.20
2018-09-03T16:24:20.061Z,56.20
2018-09-03T16:26:49.301Z,56.20
2018-09-03T16:29:17.685Z,56.20
2018-09-03T16:31:46.017Z,56.20
2018-09-03T16:34:14.457Z,56.20
2018-09-03T16:36:42.966Z,56.30
2018-09-03T16:39:12.555Z,56.20
2018-09-03T16:41:41.136Z,56.30
2018-09-03T16:44:11.250Z,56.20
2018-09-03T16:46:40.100Z,56.30
2018-09-03T16:49:08.555Z,56.30
2018-09-03T16:51:37.177Z,56.30
2018-09-03T16:54:05.848Z,56.30
2018-09-03T16:56:34.374Z,56.30
2018-09-03T16:59:02.747Z,56.50
2018-09-03T17:01:31.246Z,56.40
2018-09-03T17:03:59.584Z,56.40
2018-09-03T17:06:28.014Z,56.60
2018-09-03T17:08:56.379Z,56.50
2018-09-03T17:11:24.713Z,56.40
2018-09-03T17:13:53.033Z,56.30
2018-09-03T17:16:21.446Z,56.20
2018-09-03T17:18:49.872Z,56.30
2018-09-03T17:21:18.230Z,56.60
2018-09-03T17:23:46.592Z,56.20
2018-09-03T17:26:14.940Z,56.50
2018-09-03T17:28:43.316Z,56.30
2018-09-03T17:31:11.790Z,56.40
2018-09-03T17:33:40.171Z,56.30
2018-09-03T17:36:08.888Z,56.20
2018-09-03T17:38:37.268Z,56.30
2018-09-03T17:41:05.653Z,56.20
2018-09-03T17:43:33.991Z,56.10
2018-09-03T17:46:02.359Z,56.10
2018-09-03T17:48:30.725Z,56.10
2018-09-03T17:50:59.114Z,56.00
2018-09-03T17:53:27.627Z,55.90
2018-09-03T17:55:56.071Z,56.00
2018-09-03T17:58:24.475Z,56.10
2018-09-03T18:00:52.882Z,56.10
2018-09-03T18:03:21.315Z,56.10
2018-09-03T18:05:49.784Z,55.90
2018-09-03T18:08:18.211Z,55.80
2018-09-03T18:10:46.601Z,55.80
2018-09-03T18:13:15.134Z,55.90
2018-09-03T18:15:43.469Z,55.60
2018-09-03T18:18:11.812Z,55.60
2018-09-03T18:20:40.147Z,55.80
2018-09-03T18:23:08.508Z,56.30
2018-09-03T18:25:36.804Z,55.70
2018-09-03T18:28:05.455Z,55.70
2018-09-03T18:30:33.807Z,55.80
2018-09-03T18:33:02.309Z,55.90
2018-09-03T18:35:30.802Z,55.90
2018-09-03T18:37:59.292Z,56.00
2018-09-03T18:40:27.697Z,56.10
2018-09-03T18:42:56.088Z,56.20
2018-09-03T18:45:24.430Z,56.10
2018-09-03T18:47:52.811Z,56.50
2018-09-03T18:50:21.195Z,56.10
2018-09-03T18:52:49.608Z,56.30
2018-09-03T18:55:18.572Z,56.20
2018-09-03T18:57:46.943Z,56.30
2018-09-03T19:00:17.485Z,56.30
2018-09-03T19:02:45.899Z,56.40
2018-09-03T19:05:14.267Z,56.70
2018-09-03T19:07:42.609Z,56.80
2018-09-03T19:10:10.967Z,57.10
2018-09-03T19:12:39.301Z,57.20
2018-09-03T19:15:09.139Z,57.10
2018-09-03T19:17:38.382Z,56.80
2018-09-03T19:20:07.663Z,56.90
2018-09-03T19:22:36.112Z,56.90
2018-09-03T19:25:04.729Z,56.80
2018-09-03T19:27:33.102Z,56.80
2018-09-03T19:30:01.492Z,56.80
2018-09-03T19:32:29.952Z,56.90
2018-09-03T19:34:58.420Z,56.80
2018-09-03T19:37:26.807Z,56.90
2018-09-03T19:39:55.182Z,57.00
2018-09-03T19:42:23.562Z,57.00
2018-09-03T19:44:52.270Z,57.10
2018-09-03T19:47:20.612Z,57.10
2018-09-03T19:49:49.091Z,57.30
2018-09-03T19:52:17.575Z,57.30
2018-09-03T19:54:45.894Z,57.30
2018-09-03T19:57:14.402Z,57.30
2018-09-03T19:59:42.838Z,57.40
2018-09-03T20:02:11.349Z,57.40
2018-09-03T20:04:39.830Z,57.40
2018-09-03T20:07:08.295Z,57.50
2018-09-03T20:09:37.204Z,57.50
2018-09-03T20:12:05.722Z,57.80
2018-09-03T20:14:34.150Z,57.60
2018-09-03T20:17:02.782Z,57.60
2018-09-03T20:19:31.836Z,57.60
2018-09-03T20:22:00.357Z,57.60
2018-09-03T20:24:29.015Z,57.60
2018-09-03T20:26:57.523Z,57.60
2018-09-03T20:29:25.870Z,57.70
2018-09-03T20:31:54.254Z,57.70
2018-09-03T20:34:22.607Z,57.80
2018-09-03T20:36:51.036Z,57.80
2018-09-03T20:39:19.570Z,57.80
2018-09-03T20:41:48.034Z,57.80
2018-09-03T20:44:17.679Z,57.90
2018-09-03T20:46:46.320Z,57.90
2018-09-03T20:49:14.696Z,57.90
2018-09-03T20:51:43.179Z,57.90
2018-09-03T20:54:11.707Z,58.00
2018-09-03T20:56:40.049Z,58.00
2018-09-03T20:59:08.527Z,58.10
2018-09-03T21:01:36.979Z,58.10
2018-09-03T21:04:05.429Z,58.10
2018-09-03T21:06:33.752Z,58.20
2018-09-03T21:09:02.105Z,58.20
2018-09-03T21:11:30.465Z,58.20
2018-09-03T21:13:58.929Z,58.20
2018-09-03T21:16:29.293Z,58.30
2018-09-03T21:18:57.908Z,58.30
2018-09-03T21:21:26.331Z,58.30
2018-09-03T21:23:54.757Z,58.30
2018-09-03T21:26:23.106Z,58.30
2018-09-03T21:28:51.553Z,58.40
2018-09-03T21:31:19.987Z,58.40
2018-09-03T21:33:48.329Z,58.50
2018-09-03T21:36:16.683Z,58.40
2018-09-03T21:38:45.095Z,58.50
2018-09-03T21:41:13.503Z,58.60
2018-09-03T21:43:41.913Z,58.50
2018-09-03T21:46:10.351Z,58.60
2018-09-03T21:48:38.835Z,58.70
2018-09-03T21:51:07.319Z,58.60
2018-09-03T21:53:35.843Z,58.70
2018-09-03T21:56:04.293Z,58.70
2018-09-03T21:58:32.859Z,58.80
2018-09-03T22:01:01.301Z,58.80
2018-09-03T22:03:29.655Z,58.80
2018-09-03T22:05:58.115Z,58.80
2018-09-03T22:08:26.646Z,58.90
2018-09-03T22:10:55.064Z,58.90
2018-09-03T22:13:23.370Z,58.90
2018-09-03T22:15:51.710Z,58.90
2018-09-03T22:18:20.144Z,58.90
2018-09-03T22:20:48.532Z,58.90
2018-09-03T22:23:17.000Z,58.90
2018-09-03T22:25:45.355Z,58.90
2018-09-03T22:28:13.797Z,58.90
2018-09-03T22:30:42.124Z,59.10
2018-09-03T22:33:10.586Z,58.90
2018-09-03T22:35:39.059Z,58.90
2018-09-03T22:38:07.612Z,58.90
2018-09-03T22:40:36.032Z,58.90
2018-09-03T22:43:04.529Z,59.00
2018-09-03T22:45:32.848Z,59.00
2018-09-03T22:48:01.208Z,59.00
2018-09-03T22:50:29.526Z,59.00
2018-09-03T22:52:57.957Z,59.00
2018-09-03T22:55:26.292Z,59.00
2018-09-03T22:57:54.663Z,59.10
2018-09-03T23:00:23.145Z,59.00
2018-09-03T23:02:51.517Z,59.00
2018-09-03T23:05:19.903Z,59.10
2018-09-03T23:07:48.307Z,59.10
2018-09-03T23:10:16.718Z,59.10
2018-09-03T23:12:45.131Z,59.10
2018-09-03T23:15:13.535Z,59.10
2018-09-03T23:17:41.842Z,59.10
2018-09-03T23:20:10.152Z,59.20
2018-09-03T23:22:38.528Z,59.10
2018-09-03T23:25:06.882Z,59.10
2018-09-03T23:27:35.181Z,59.10
2018-09-03T23:30:03.583Z,59.10
2018-09-03T23:32:32.009Z,59.10
2018-09-03T23:35:00.357Z,59.10
2018-09-03T23:37:28.672Z,59.10
2018-09-03T23:39:57.011Z,59.20
2018-09-03T23:42:25.364Z,59.10
2018-09-03T23:44:53.895Z,59.10
2018-09-03T23:47:22.247Z,59.10
2018-09-03T23:49:50.668Z,59.10
2018-09-03T23:52:25.690Z,59.10
2018-09-03T23:54:54.015Z,59.10
2018-09-03T23:57:22.405Z,59.10
2018-09-03T23:59:50.733Z,59.00
